createdAt,value
2022-10-11T00:00:34.347Z,76.57
2022-10-11T00:03:02.402Z,230.27
2022-10-11T00:05:30.629Z,201.20
2022-10-11T00:07:58.962Z,111.53
2022-10-11T00:10:27.262Z,69.70
2022-10-11T00:12:55.347Z,284.57
2022-10-11T00:15:23.791Z,198.07
2022-10-11T00:17:53.205Z,184.53
2022-10-11T00:20:21.390Z,175.67
2022-10-11T00:22:50.168Z,312.80
2022-10-11T00:25:18.797Z,269.57
2022-10-11T00:27:46.948Z,250.97
2022-10-11T00:30:15.254Z,390.40
2022-10-11T00:32:43.284Z,32.27
2022-10-11T00:35:12.754Z,121.20
2022-10-11T00:37:41.070Z,401.73
2022-10-11T00:40:15.336Z,157.03
2022-10-11T00:42:43.436Z,133.87
2022-10-11T00:45:47.789Z,196.47
2022-10-11T00:48:22.640Z,127.13
2022-10-11T00:50:52.064Z,40.20
2022-10-11T00:53:20.107Z,68.80
2022-10-11T00:55:54.781Z,182.57
2022-10-11T00:58:24.362Z,28.80
2022-10-11T01:00:53.765Z,229.23
2022-10-11T01:03:25.628Z,41.87
2022-10-11T01:05:56.031Z,169.33
2022-10-11T01:08:24.846Z,146.73
2022-10-11T01:10:53.519Z,112.13
2022-10-11T01:13:29.948Z,96.73
2022-10-11T01:16:06.329Z,124.07
2022-10-11T01:18:41.915Z,65.13
2022-10-11T01:21:18.581Z,207.67
2022-10-11T01:24:43.798Z,104.13
2022-10-11T01:27:35.547Z,31.57
2022-10-11T01:30:21.491Z,50.70
2022-10-11T01:32:58.458Z,23.80
2022-10-11T01:35:30.831Z,240.50
2022-10-11T01:38:03.743Z,119.80
2022-10-11T01:40:36.411Z,102.47
2022-10-11T01:43:05.760Z,258.70
2022-10-11T01:45:36.634Z,52.87
2022-10-11T01:48:10.203Z,49.50
2022-10-11T01:50:48.915Z,165.00
2022-10-11T01:53:49.931Z,40.73
2022-10-11T01:56:31.990Z,47.07
2022-10-11T01:59:15.944Z,25.87
2022-10-11T02:01:55.492Z,172.97
2022-10-11T02:04:31.719Z,115.83
2022-10-11T02:07:04.570Z,464.80
2022-10-11T02:09:37.516Z,472.00
2022-10-11T02:12:10.424Z,725.33
2022-10-11T02:14:43.908Z,475.90
2022-10-11T02:17:16.226Z,240.50
2022-10-11T02:19:48.175Z,34.07
2022-10-11T02:22:20.476Z,283.13
2022-10-11T02:24:53.413Z,290.33
2022-10-11T02:27:25.652Z,53.37
2022-10-11T02:29:56.810Z,311.40
2022-10-11T02:32:27.168Z,30.33
2022-10-11T02:34:57.238Z,81.93
2022-10-11T02:37:31.648Z,38.37
2022-10-11T02:40:05.182Z,177.00
2022-10-11T02:42:37.284Z,201.63
2022-10-11T02:45:10.922Z,1275.40
2022-10-11T02:47:41.747Z,78.80
2022-10-11T02:50:11.850Z,204.97
2022-10-11T02:52:40.026Z,421.97
2022-10-11T02:55:09.981Z,202.63
2022-10-11T02:57:37.981Z,69.80
2022-10-11T03:00:07.002Z,54.07
2022-10-11T03:02:35.025Z,28.27
2022-10-11T03:05:04.847Z,40.73
2022-10-11T03:07:32.886Z,17.87
2022-10-11T03:10:00.892Z,50.37
2022-10-11T03:12:28.864Z,109.37
2022-10-11T03:14:56.858Z,130.43
2022-10-11T03:17:36.153Z,14.87
2022-10-11T03:20:07.381Z,500.47
2022-10-11T03:22:35.381Z,170.03
2022-10-11T03:25:04.802Z,155.47
2022-10-11T03:27:33.328Z,1050.70
2022-10-11T03:30:01.706Z,159.03
2022-10-11T03:32:30.283Z,534.90
2022-10-11T03:34:58.648Z,90.80
2022-10-11T03:37:28.224Z,70.03
2022-10-11T03:39:56.257Z,33.60
2022-10-11T03:42:24.262Z,38.20
2022-10-11T03:44:52.309Z,226.23
2022-10-11T03:47:20.479Z,270.43
2022-10-11T03:49:48.487Z,1002.40
2022-10-11T03:52:16.505Z,76.33
2022-10-11T03:54:45.908Z,152.13
2022-10-11T03:57:13.903Z,329.53
2022-10-11T03:59:41.981Z,705.63
2022-10-11T04:02:10.327Z,585.40
2022-10-11T04:04:38.410Z,185.20
2022-10-11T04:07:06.420Z,234.83
2022-10-11T04:09:34.435Z,102.00
2022-10-11T04:12:03.944Z,28.00
2022-10-11T04:14:31.959Z,92.67
2022-10-11T04:17:00.573Z,540.60
2022-10-11T04:19:29.150Z,38.33
2022-10-11T04:21:57.125Z,60.97
2022-10-11T04:24:25.165Z,53.27
2022-10-11T04:26:53.223Z,376.23
2022-10-11T04:29:22.711Z,190.97
2022-10-11T04:31:50.720Z,130.43
2022-10-11T04:34:19.147Z,1430.00
2022-10-11T04:36:49.885Z,32.57
2022-10-11T04:39:18.470Z,139.57
2022-10-11T04:41:46.514Z,84.53
2022-10-11T04:44:14.589Z,537.07
2022-10-11T04:46:43.988Z,214.53
2022-10-11T04:49:12.008Z,270.83
2022-10-11T04:51:40.084Z,654.30
2022-10-11T04:54:08.091Z,162.63
2022-10-11T04:56:36.107Z,41.97
2022-10-11T04:59:04.303Z,82.80
2022-10-11T05:01:32.470Z,63.17
2022-10-11T05:04:01.930Z,755.97
2022-10-11T05:06:29.994Z,54.63
2022-10-11T05:08:58.255Z,26.20
2022-10-11T05:11:26.251Z,53.13
2022-10-11T05:13:56.522Z,276.90
2022-10-11T05:16:24.870Z,184.57
2022-10-11T05:18:52.880Z,91.83
2022-10-11T05:21:24.073Z,178.60
2022-10-11T05:23:54.035Z,76.53
2022-10-11T05:26:22.315Z,714.07
2022-10-11T05:28:50.822Z,570.83
2022-10-11T05:31:19.048Z,168.60
2022-10-11T05:33:47.237Z,87.93
2022-10-11T05:36:15.531Z,44.83
2022-10-11T05:38:45.127Z,74.53
2022-10-11T05:41:15.107Z,149.50
2022-10-11T05:43:44.507Z,426.37
2022-10-11T05:46:12.872Z,29.13
2022-10-11T05:48:41.162Z,96.37
2022-10-11T05:51:10.521Z,58.33
2022-10-11T05:53:39.382Z,70.17
2022-10-11T05:56:20.257Z,58.17
2022-10-11T05:58:48.469Z,41.00
2022-10-11T06:01:21.015Z,23.43
2022-10-11T06:03:49.465Z,28.83
2022-10-11T06:06:18.185Z,84.17
2022-10-11T06:08:47.060Z,113.87
2022-10-11T06:11:18.355Z,152.03
2022-10-11T06:13:46.422Z,98.10
2022-10-11T06:16:14.768Z,573.43
2022-10-11T06:18:42.835Z,95.23
2022-10-11T06:21:11.219Z,329.57
2022-10-11T06:23:39.187Z,84.27
2022-10-11T06:26:09.908Z,459.67
2022-10-11T06:28:39.623Z,359.47
2022-10-11T06:31:08.121Z,396.57
2022-10-11T06:33:36.675Z,214.57
2022-10-11T06:36:08.142Z,633.53
2022-10-11T06:38:37.312Z,870.27
2022-10-11T06:41:12.470Z,226.83
2022-10-11T06:43:41.831Z,77.00
2022-10-11T06:46:09.845Z,937.10
2022-10-11T06:48:41.658Z,936.97
2022-10-11T06:51:09.706Z,62.00
2022-10-11T06:53:37.935Z,68.07
2022-10-11T06:56:07.866Z,209.67
2022-10-11T06:58:36.827Z,137.07
2022-10-11T07:01:08.388Z,563.40
2022-10-11T07:03:36.609Z,97.90
2022-10-11T07:06:07.633Z,704.97
2022-10-11T07:08:36.292Z,309.50
2022-10-11T07:11:05.596Z,416.07
2022-10-11T07:13:33.765Z,766.90
2022-10-11T07:16:02.738Z,442.27
2022-10-11T07:18:32.802Z,792.47
2022-10-11T07:21:04.251Z,614.10
2022-10-11T07:23:32.461Z,914.93
2022-10-11T07:26:00.690Z,645.20
2022-10-11T07:28:30.527Z,1049.33
2022-10-11T07:30:58.935Z,1357.30
2022-10-11T07:33:26.977Z,1338.90
2022-10-11T07:35:59.041Z,1085.07
2022-10-11T07:38:27.033Z,922.13
2022-10-11T07:40:55.354Z,899.70
2022-10-11T07:43:23.314Z,807.53
2022-10-11T07:45:55.500Z,755.83
2022-10-11T07:48:23.797Z,762.27
2022-10-11T07:50:51.895Z,628.77
2022-10-11T07:53:21.707Z,680.40
2022-10-11T07:55:49.753Z,598.40
2022-10-11T07:58:17.762Z,662.07
2022-10-11T08:00:45.782Z,323.37
2022-10-11T08:03:14.043Z,724.17
2022-10-11T08:05:42.099Z,699.80
2022-10-11T08:08:10.232Z,664.00
2022-10-11T08:10:39.908Z,615.67
2022-10-11T08:13:08.985Z,564.33
2022-10-11T08:15:37.072Z,599.60
2022-10-11T08:18:05.557Z,705.50
2022-10-11T08:20:33.829Z,312.33
2022-10-11T08:23:01.989Z,532.97
2022-10-11T08:25:30.025Z,484.60
2022-10-11T08:27:59.374Z,904.07
2022-10-11T08:30:27.434Z,742.77
2022-10-11T08:32:55.398Z,606.00
2022-10-11T08:35:23.408Z,938.50
2022-10-11T08:37:51.447Z,761.97
2022-10-11T08:40:22.033Z,771.20
2022-10-11T08:42:56.611Z,750.00
2022-10-11T08:45:32.379Z,916.27
2022-10-11T08:48:09.650Z,616.83
2022-10-11T08:50:39.447Z,754.63
2022-10-11T08:53:16.010Z,783.67
2022-10-11T08:55:49.274Z,694.57
2022-10-11T08:58:20.597Z,680.93
2022-10-11T09:00:53.888Z,739.77
2022-10-11T09:03:29.522Z,875.03
2022-10-11T09:06:07.274Z,770.80
2022-10-11T09:08:45.811Z,811.93
2022-10-11T09:11:22.191Z,800.33
2022-10-11T09:14:06.080Z,757.60
2022-10-11T09:16:46.607Z,1142.27
2022-10-11T09:19:39.788Z,1071.40
2022-10-11T09:22:14.587Z,644.33
2022-10-11T09:25:00.668Z,712.10
2022-10-11T09:27:50.242Z,1280.00
2022-10-11T09:30:21.709Z,763.33
2022-10-11T09:32:59.687Z,1118.57
2022-10-11T09:35:33.470Z,927.90
2022-10-11T09:38:06.290Z,1672.57
2022-10-11T09:40:44.795Z,1255.23
2022-10-11T09:43:13.230Z,1588.10
2022-10-11T09:45:49.206Z,1151.33
2022-10-11T09:48:24.028Z,1185.87
2022-10-11T09:51:03.841Z,1422.27
2022-10-11T09:53:52.404Z,1090.30
2022-10-11T09:56:20.640Z,1902.17
2022-10-11T09:58:49.010Z,705.57
2022-10-11T10:01:25.572Z,1849.17
2022-10-11T10:04:09.078Z,1020.07
2022-10-11T10:06:37.854Z,942.00
2022-10-11T10:09:22.619Z,1012.83
2022-10-11T10:11:50.782Z,1131.43
2022-10-11T10:14:23.683Z,1492.97
2022-10-11T10:17:01.741Z,1727.50
2022-10-11T10:19:42.338Z,989.63
2022-10-11T10:22:19.722Z,1102.43
2022-10-11T10:24:50.076Z,851.27
2022-10-11T10:27:22.146Z,1286.07
2022-10-11T10:30:14.389Z,1405.60
2022-10-11T10:32:56.579Z,1065.57
2022-10-11T10:35:39.909Z,767.10
2022-10-11T10:38:17.405Z,1073.00
2022-10-11T10:40:48.911Z,1238.17
2022-10-11T10:43:19.913Z,1213.13
2022-10-11T10:46:20.030Z,762.17
2022-10-11T10:51:57.772Z,850.93
2022-10-11T10:54:39.032Z,980.43
2022-10-11T10:57:15.494Z,1521.53
2022-10-11T11:00:06.460Z,1197.30
2022-10-11T11:02:42.082Z,955.97
2022-10-11T11:05:22.121Z,1635.20
2022-10-11T11:08:00.194Z,1078.27
2022-10-11T11:10:37.384Z,864.43
2022-10-11T11:13:29.722Z,1736.53
2022-10-11T11:16:07.884Z,1511.37
2022-10-11T11:18:44.522Z,759.60
2022-10-11T11:21:27.190Z,1206.60
2022-10-11T11:24:04.225Z,1314.60
2022-10-11T11:26:44.239Z,1107.23
2022-10-11T11:29:23.382Z,1116.13
2022-10-11T11:32:07.807Z,1014.70
2022-10-11T11:34:40.249Z,901.70
2022-10-11T11:37:20.818Z,1395.47
2022-10-11T11:39:53.082Z,922.43
2022-10-11T11:42:27.689Z,1085.03
2022-10-11T11:44:55.917Z,1095.47
2022-10-11T11:47:29.273Z,828.93
2022-10-11T11:50:02.537Z,881.03
2022-10-11T11:52:36.070Z,741.20
2022-10-11T11:55:12.189Z,1116.57
2022-10-11T11:57:56.443Z,1106.90
2022-10-11T12:00:26.727Z,853.67
2022-10-11T12:02:58.660Z,855.63
2022-10-11T12:05:29.798Z,914.00
2022-10-11T12:08:01.686Z,1366.57
2022-10-11T12:10:37.691Z,926.60
2022-10-11T12:13:17.863Z,888.17
2022-10-11T12:16:02.621Z,820.67
2022-10-11T12:18:31.795Z,1093.67
2022-10-11T12:21:06.107Z,1050.63
2022-10-11T12:23:46.807Z,965.70
2022-10-11T12:29:45.394Z,945.17
2022-10-11T12:32:52.517Z,761.27
2022-10-11T12:35:51.357Z,1058.47
2022-10-11T12:38:22.631Z,873.80
2022-10-11T12:40:54.258Z,913.80
2022-10-11T12:43:37.453Z,1032.50
2022-10-11T12:46:34.271Z,1039.33
2022-10-11T12:49:20.003Z,749.70
2022-10-11T12:51:59.523Z,1741.73
2022-10-11T12:54:54.497Z,1294.23
2022-10-11T12:57:47.138Z,934.73
2022-10-11T13:00:22.050Z,775.47
2022-10-11T13:02:50.847Z,862.40
2022-10-11T13:05:24.475Z,1185.90
2022-10-11T13:07:56.023Z,839.27
2022-10-11T13:10:28.789Z,1129.93
2022-10-11T13:12:59.668Z,837.87
2022-10-11T13:15:29.365Z,1105.80
2022-10-11T13:18:01.149Z,875.03
2022-10-11T13:20:32.295Z,841.53
2022-10-11T13:23:01.703Z,755.67
2022-10-11T13:25:37.274Z,696.57
2022-10-11T13:28:09.784Z,1034.13
2022-10-11T13:30:43.380Z,1226.63
2022-10-11T13:33:19.799Z,1014.07
2022-10-11T13:35:49.109Z,759.93
2022-10-11T13:38:23.176Z,1312.13
2022-10-11T13:40:51.857Z,1029.40
2022-10-11T13:43:23.065Z,1189.90
2022-10-11T13:45:51.287Z,993.00
2022-10-11T13:48:19.382Z,815.87
2022-10-11T13:51:06.829Z,840.33
2022-10-11T13:53:36.736Z,883.90
2022-10-11T13:56:07.551Z,1403.53
2022-10-11T13:58:41.089Z,927.13
2022-10-11T14:01:20.874Z,811.57
2022-10-11T14:03:54.110Z,273.33
2022-10-11T14:06:22.595Z,857.33
2022-10-11T14:08:56.397Z,1241.10
2022-10-11T14:11:35.809Z,1053.17
2022-10-11T14:14:31.645Z,877.50
2022-10-11T14:17:05.422Z,829.20
2022-10-11T14:19:33.589Z,886.07
2022-10-11T14:22:01.590Z,814.87
2022-10-11T14:24:30.971Z,998.10
2022-10-11T14:26:59.200Z,983.63
2022-10-11T14:29:29.003Z,1600.80
2022-10-11T14:32:02.347Z,1212.87
2022-10-11T14:34:30.975Z,1176.87
2022-10-11T14:36:59.845Z,1039.60
2022-10-11T14:39:31.819Z,1204.40
2022-10-11T14:42:00.276Z,1144.30
2022-10-11T14:44:28.517Z,1813.83
2022-10-11T14:46:56.699Z,1059.77
2022-10-11T14:49:27.433Z,1415.27
2022-10-11T14:51:57.598Z,675.43
2022-10-11T14:54:27.652Z,819.50
2022-10-11T14:56:58.931Z,1145.27
2022-10-11T14:59:30.115Z,1374.03
2022-10-11T15:01:58.150Z,802.63
2022-10-11T15:04:27.438Z,959.60
2022-10-11T15:06:57.146Z,937.80
2022-10-11T15:09:25.464Z,1758.27
2022-10-11T15:11:55.242Z,1203.40
2022-10-11T15:14:25.919Z,959.20
2022-10-11T15:16:56.096Z,1168.27
2022-10-11T15:19:26.100Z,881.30
2022-10-11T15:21:54.303Z,1316.63
2022-10-11T15:24:22.537Z,1810.87
2022-10-11T15:26:50.926Z,818.73
2022-10-11T15:29:21.778Z,1544.37
2022-10-11T15:31:51.223Z,731.47
2022-10-11T15:34:19.219Z,1083.03
2022-10-11T15:36:47.384Z,816.50
2022-10-11T15:39:27.313Z,545.80
2022-10-11T15:41:55.602Z,718.63
2022-10-11T15:44:23.686Z,927.93
2022-10-11T15:46:53.128Z,962.80
2022-10-11T15:49:21.165Z,740.97
2022-10-11T15:51:49.235Z,903.93
2022-10-11T15:54:17.252Z,1523.47
2022-10-11T15:56:45.254Z,632.60
2022-10-11T15:59:13.225Z,1352.93
2022-10-11T16:01:41.338Z,721.13
2022-10-11T16:04:11.111Z,856.60
2022-10-11T16:06:40.989Z,890.90
2022-10-11T16:09:08.974Z,759.03
2022-10-11T16:11:36.973Z,739.23
2022-10-11T16:14:04.991Z,797.40
2022-10-11T16:16:33.014Z,517.80
2022-10-11T16:19:01.042Z,1043.37
2022-10-11T16:21:30.447Z,668.83
2022-10-11T16:23:58.910Z,629.00
2022-10-11T16:26:27.070Z,329.07
2022-10-11T16:28:56.623Z,1162.10
2022-10-11T16:31:25.095Z,554.93
2022-10-11T16:33:53.628Z,1067.63
2022-10-11T16:36:35.597Z,823.77
2022-10-11T16:39:07.950Z,744.20
2022-10-11T16:41:36.217Z,1543.30
2022-10-11T16:44:04.317Z,303.73
2022-10-11T16:46:33.110Z,481.20
2022-10-11T16:49:01.199Z,796.10
2022-10-11T16:51:29.272Z,1309.00
2022-10-11T16:53:57.276Z,676.87
2022-10-11T16:56:27.611Z,765.57
2022-10-11T16:58:56.215Z,854.27
2022-10-11T17:01:24.824Z,250.20
2022-10-11T17:03:53.891Z,729.57
2022-10-11T17:06:21.868Z,494.87
2022-10-11T17:08:49.915Z,1351.23
2022-10-11T17:11:18.543Z,810.83
2022-10-11T17:13:49.614Z,366.70
2022-10-11T17:16:18.666Z,756.73
2022-10-11T17:18:46.706Z,734.27
2022-10-11T17:21:16.097Z,1989.60
2022-10-11T17:23:44.335Z,604.90
2022-10-11T17:26:16.293Z,821.87
2022-10-11T17:28:44.632Z,632.83
2022-10-11T17:31:14.357Z,194.33
2022-10-11T17:33:42.329Z,283.77
2022-10-11T17:36:21.513Z,1426.33
2022-10-11T17:38:50.154Z,745.83
2022-10-11T17:41:19.161Z,978.97
2022-10-11T17:43:47.609Z,1231.70
2022-10-11T17:46:18.554Z,1041.23
2022-10-11T17:48:46.528Z,1104.00
2022-10-11T17:51:16.866Z,367.53
2022-10-11T17:53:45.927Z,813.80
2022-10-11T17:56:15.994Z,267.70
2022-10-11T17:58:45.201Z,558.03
2022-10-11T18:01:16.728Z,1098.17
2022-10-11T18:03:45.943Z,1507.63
2022-10-11T18:06:15.077Z,502.17
2022-10-11T18:08:43.401Z,875.47
2022-10-11T18:11:12.668Z,72.73
2022-10-11T18:13:43.219Z,591.33
2022-10-11T18:16:11.839Z,488.13
2022-10-11T18:18:42.317Z,1604.70
2022-10-11T18:21:11.219Z,518.53
2022-10-11T18:23:39.287Z,732.77
2022-10-11T18:26:12.232Z,260.90
2022-10-11T18:28:41.183Z,798.27
2022-10-11T18:31:13.477Z,100.00
2022-10-11T18:33:45.898Z,112.47
2022-10-11T18:36:15.623Z,257.03
2022-10-11T18:38:46.581Z,281.13
2022-10-11T18:41:17.279Z,106.33
2022-10-11T18:43:49.966Z,270.53
2022-10-11T18:46:18.578Z,139.03
2022-10-11T18:48:50.466Z,176.77
2022-10-11T18:51:20.687Z,67.20
2022-10-11T18:53:49.647Z,126.67
2022-10-11T18:56:20.677Z,178.30
2022-10-11T18:58:50.086Z,114.30
2022-10-11T19:01:20.448Z,286.33
2022-10-11T19:03:52.714Z,130.37
2022-10-11T19:06:22.704Z,146.17
2022-10-11T19:08:52.694Z,592.80
2022-10-11T19:11:22.204Z,93.10
2022-10-11T19:13:56.241Z,33.97
2022-10-11T19:16:24.362Z,85.83
2022-10-11T19:18:54.280Z,174.60
2022-10-11T19:21:23.077Z,55.83
2022-10-11T19:23:51.649Z,223.03
2022-10-11T19:26:21.735Z,217.27
2022-10-11T19:28:55.132Z,48.43
2022-10-11T19:31:23.302Z,77.03
2022-10-11T19:33:51.329Z,73.90
2022-10-11T19:36:20.831Z,39.40
2022-10-11T19:38:50.267Z,184.43
2022-10-11T19:41:19.953Z,15.20
2022-10-11T19:43:48.334Z,224.67
2022-10-11T19:46:32.381Z,96.37
2022-10-11T19:49:07.358Z,46.37
2022-10-11T19:51:38.233Z,49.73
2022-10-11T19:54:08.239Z,229.87
2022-10-11T19:56:36.886Z,89.03
2022-10-11T19:59:06.568Z,142.07
2022-10-11T20:01:36.234Z,77.27
2022-10-11T20:04:06.297Z,32.67
2022-10-11T20:06:38.756Z,135.90
2022-10-11T20:09:28.403Z,74.33
2022-10-11T20:11:55.876Z,104.37
2022-10-11T20:14:24.019Z,51.07
2022-10-11T20:16:52.398Z,32.40
2022-10-11T20:19:24.847Z,104.30
2022-10-11T20:21:57.210Z,184.60
2022-10-11T20:24:27.423Z,138.07
2022-10-11T20:26:55.677Z,91.70
2022-10-11T20:29:25.268Z,52.73
2022-10-11T20:31:53.332Z,72.40
2022-10-11T20:34:21.324Z,79.27
2022-10-11T20:36:49.635Z,678.43
2022-10-11T20:39:19.045Z,64.50
2022-10-11T20:41:47.046Z,97.20
2022-10-11T20:44:16.170Z,172.57
2022-10-11T20:46:44.278Z,780.00
2022-10-11T20:49:13.439Z,203.87
2022-10-11T20:51:42.928Z,389.73
2022-10-11T20:54:11.258Z,866.57
2022-10-11T20:56:40.848Z,119.93
2022-10-11T20:59:09.219Z,189.97
2022-10-11T21:01:39.647Z,344.17
2022-10-11T21:04:11.074Z,548.87
2022-10-11T21:06:39.066Z,292.37
2022-10-11T21:09:08.512Z,180.90
2022-10-11T21:11:38.270Z,156.67
2022-10-11T21:14:07.818Z,70.50
2022-10-11T21:16:36.005Z,56.20
2022-10-11T21:19:04.075Z,40.13
2022-10-11T21:21:32.391Z,745.67
2022-10-11T21:24:02.226Z,409.43
2022-10-11T21:26:30.672Z,730.67
2022-10-11T21:29:00.250Z,158.17
2022-10-11T21:31:33.743Z,216.97
2022-10-11T21:34:02.501Z,44.43
2022-10-11T21:36:30.764Z,94.73
2022-10-11T21:38:58.782Z,32.17
2022-10-11T21:41:29.843Z,117.27
2022-10-11T21:43:58.575Z,115.97
2022-10-11T21:46:54.010Z,50.93
2022-10-11T21:49:18.017Z,33.97
2022-10-11T21:51:46.419Z,69.47
2022-10-11T21:54:14.529Z,38.43
2022-10-11T21:56:42.830Z,103.30
2022-10-11T21:59:12.382Z,105.47
2022-10-11T22:01:43.995Z,513.03
2022-10-11T22:04:12.569Z,54.00
2022-10-11T22:06:40.832Z,34.80
2022-10-11T22:09:09.442Z,38.70
2022-10-11T22:11:37.557Z,68.93
2022-10-11T22:14:05.994Z,17.93
2022-10-11T22:16:34.686Z,58.47
2022-10-11T22:19:04.748Z,19.43
2022-10-11T22:21:32.731Z,45.20
2022-10-11T22:24:01.161Z,73.13
2022-10-11T22:26:31.230Z,58.23
2022-10-11T22:28:59.998Z,88.50
2022-10-11T22:31:28.002Z,58.43
2022-10-11T22:33:56.251Z,45.10
2022-10-11T22:36:25.926Z,70.50
2022-10-11T22:38:55.255Z,69.70
2022-10-11T22:41:23.790Z,52.87
2022-10-11T22:43:52.310Z,37.57
2022-10-11T22:46:20.383Z,106.03
2022-10-11T22:48:48.383Z,77.97
2022-10-11T22:51:16.835Z,40.53
2022-10-11T22:53:46.505Z,50.90
2022-10-11T22:56:14.531Z,67.87
2022-10-11T22:58:42.579Z,42.97
2022-10-11T23:01:12.545Z,56.57
2022-10-11T23:03:40.872Z,84.97
2022-10-11T23:06:09.668Z,27.70
2022-10-11T23:08:37.688Z,81.13
2022-10-11T23:11:08.475Z,97.20
2022-10-11T23:13:36.853Z,69.93
2022-10-11T23:16:09.541Z,129.07
2022-10-11T23:18:38.318Z,48.30
2022-10-11T23:21:07.042Z,24.63
2022-10-11T23:23:35.638Z,45.87
2022-10-11T23:26:06.154Z,302.50
2022-10-11T23:28:36.100Z,53.57
2022-10-11T23:31:08.894Z,48.87
2022-10-11T23:33:37.400Z,58.30
2022-10-11T23:36:06.399Z,50.00
2022-10-11T23:38:34.392Z,16.40
2022-10-11T23:41:02.410Z,20.77
2022-10-11T23:43:30.390Z,35.60
2022-10-11T23:46:00.422Z,48.67
2022-10-11T23:48:28.489Z,83.67
2022-10-11T23:50:56.511Z,47.20
2022-10-11T23:53:24.566Z,18.80
2022-10-11T23:55:52.615Z,21.20
2022-10-11T23:58:20.651Z,78.20
